createdAt,value
2022-09-06T00:00:45.323Z,4.82
2022-09-06T00:03:19.215Z,4.03
2022-09-06T00:05:47.652Z,6.18
2022-09-06T00:08:21.585Z,4.10
2022-09-06T00:11:01.315Z,5.80
2022-09-06T00:13:35.433Z,5.85
2022-09-06T00:16:11.599Z,8.57
2022-09-06T00:18:40.178Z,12.02
2022-09-06T00:21:19.316Z,6.43
2022-09-06T00:23:53.667Z,10.98
2022-09-06T00:26:22.827Z,22.52
2022-09-06T00:28:51.350Z,26.80
2022-09-06T00:31:21.415Z,19.60
2022-09-06T00:33:50.482Z,23.95
2022-09-06T00:36:19.272Z,18.48
2022-09-06T00:38:47.676Z,16.92
2022-09-06T00:41:16.726Z,18.40
2022-09-06T00:43:45.206Z,10.80
2022-09-06T00:46:25.803Z,6.05
2022-09-06T00:48:56.532Z,5.35
2022-09-06T00:51:31.483Z,4.38
2022-09-06T00:54:02.800Z,5.03
2022-09-06T00:56:32.481Z,5.63
2022-09-06T00:59:01.222Z,5.18
2022-09-06T01:01:29.759Z,5.88
2022-09-06T01:04:03.247Z,4.93
2022-09-06T01:06:38.095Z,6.25
2022-09-06T01:09:18.832Z,4.53
2022-09-06T01:11:47.223Z,4.38
2022-09-06T01:14:37.480Z,5.80
2022-09-06T01:17:05.924Z,5.25
2022-09-06T01:19:50.138Z,4.35
2022-09-06T01:22:18.590Z,4.65
2022-09-06T01:24:54.072Z,6.40
2022-09-06T01:27:28.764Z,6.31
2022-09-06T01:30:10.614Z,5.50
2022-09-06T01:32:47.592Z,4.78
2022-09-06T01:37:47.111Z,4.82
2022-09-06T01:40:19.694Z,5.10
2022-09-06T01:42:49.096Z,8.38
2022-09-06T01:45:19.574Z,16.15
2022-09-06T01:48:00.830Z,6.15
2022-09-06T01:50:38.985Z,5.80
2022-09-06T01:53:22.796Z,6.50
2022-09-06T01:55:57.131Z,8.85
2022-09-06T01:58:45.603Z,9.20
2022-09-06T02:01:23.440Z,9.15
2022-09-06T02:04:00.586Z,5.85
2022-09-06T02:06:38.774Z,7.10
2022-09-06T02:09:09.383Z,6.93
2022-09-06T02:11:40.450Z,6.32
2022-09-06T02:14:21.927Z,4.97
2022-09-06T02:16:51.638Z,6.95
2022-09-06T02:19:28.381Z,5.70
2022-09-06T02:22:04.067Z,8.32
2022-09-06T02:24:33.669Z,7.15
2022-09-06T02:27:02.390Z,10.05
2022-09-06T02:29:41.348Z,6.82
2022-09-06T02:32:23.533Z,5.03
2022-09-06T02:34:53.329Z,11.23
2022-09-06T02:37:23.544Z,9.40
2022-09-06T02:39:52.382Z,6.78
2022-09-06T02:42:21.001Z,7.05
2022-09-06T02:44:54.416Z,8.48
2022-09-06T02:47:22.926Z,14.95
2022-09-06T02:49:51.462Z,6.65
2022-09-06T02:52:19.987Z,11.70
2022-09-06T02:54:48.704Z,7.80
2022-09-06T02:57:17.144Z,8.35
2022-09-06T02:59:51.887Z,9.77
2022-09-06T03:02:20.391Z,9.25
2022-09-06T03:04:48.873Z,9.07
2022-09-06T03:07:27.000Z,9.30
2022-09-06T03:09:57.310Z,9.05
2022-09-06T03:12:25.801Z,8.68
2022-09-06T03:17:31.712Z,8.57
2022-09-06T03:20:06.119Z,7.00
2022-09-06T03:22:39.997Z,10.00
2022-09-06T03:25:18.023Z,7.88
2022-09-06T03:27:56.078Z,8.07
2022-09-06T03:30:24.562Z,18.58
2022-09-06T03:32:53.285Z,19.48
2022-09-06T03:35:21.751Z,10.93
2022-09-06T03:37:50.255Z,8.35
2022-09-06T03:40:24.442Z,9.10
2022-09-06T03:42:52.915Z,17.23
2022-09-06T03:45:25.851Z,18.50
2022-09-06T03:48:03.830Z,15.98
2022-09-06T03:50:43.706Z,24.30
2022-09-06T03:53:14.373Z,28.70
2022-09-06T03:55:46.679Z,25.65
2022-09-06T03:58:16.208Z,27.95
2022-09-06T04:01:01.985Z,29.95
2022-09-06T04:03:30.499Z,18.90
2022-09-06T04:05:58.969Z,15.95
2022-09-06T04:08:27.773Z,14.10
2022-09-06T04:10:56.978Z,16.00
2022-09-06T04:13:30.778Z,10.23
2022-09-06T04:15:59.286Z,9.25
2022-09-06T04:18:38.963Z,9.65
2022-09-06T04:21:07.511Z,7.00
2022-09-06T04:23:39.814Z,8.20
2022-09-06T04:26:13.066Z,8.10
2022-09-06T04:28:41.554Z,10.73
2022-09-06T04:31:09.940Z,10.05
2022-09-06T04:33:39.034Z,10.77
2022-09-06T04:36:13.093Z,14.57
2022-09-06T04:38:42.638Z,11.15
2022-09-06T04:41:21.517Z,12.60
2022-09-06T04:43:50.019Z,11.90
2022-09-06T04:46:21.974Z,27.52
2022-09-06T04:48:51.052Z,15.25
2022-09-06T04:51:19.662Z,14.85
2022-09-06T04:53:48.423Z,10.50
2022-09-06T04:56:22.375Z,12.40
2022-09-06T04:58:51.526Z,10.40
2022-09-06T05:01:20.836Z,13.02
2022-09-06T05:03:50.869Z,11.27
2022-09-06T05:06:26.485Z,8.88
2022-09-06T05:08:54.978Z,11.75
2022-09-06T05:11:23.597Z,14.20
2022-09-06T05:13:52.052Z,14.35
2022-09-06T05:16:20.532Z,14.40
2022-09-06T05:18:49.060Z,12.60
2022-09-06T05:21:23.281Z,16.35
2022-09-06T05:23:55.398Z,16.52
2022-09-06T05:26:26.408Z,29.17
2022-09-06T05:28:54.912Z,30.63
2022-09-06T05:31:25.769Z,31.15
2022-09-06T05:33:54.794Z,28.63
2022-09-06T05:36:23.969Z,29.15
2022-09-06T05:39:00.525Z,24.63
2022-09-06T05:41:29.058Z,29.70
2022-09-06T05:43:57.431Z,20.90
2022-09-06T05:46:26.996Z,24.85
2022-09-06T05:48:56.074Z,22.48
2022-09-06T05:51:24.731Z,38.00
2022-09-06T05:53:53.406Z,31.60
2022-09-06T05:56:22.750Z,28.48
2022-09-06T05:58:51.367Z,26.30
2022-09-06T06:01:21.338Z,34.47
2022-09-06T06:04:02.560Z,32.85
2022-09-06T06:06:31.938Z,32.88
2022-09-06T06:09:04.847Z,32.95
2022-09-06T06:11:35.060Z,30.38
2022-09-06T06:14:03.874Z,25.15
2022-09-06T06:16:32.459Z,21.77
2022-09-06T06:19:01.139Z,23.20
2022-09-06T06:21:30.687Z,19.33
2022-09-06T06:24:00.602Z,21.50
2022-09-06T06:26:34.960Z,17.98
2022-09-06T06:29:12.953Z,17.48
2022-09-06T06:31:51.586Z,18.77
2022-09-06T06:34:22.297Z,18.40
2022-09-06T06:36:50.823Z,18.75
2022-09-06T06:39:19.441Z,19.23
2022-09-06T06:41:53.482Z,19.63
2022-09-06T06:44:32.512Z,18.73
2022-09-06T06:47:06.219Z,20.52
2022-09-06T06:49:34.756Z,22.88
2022-09-06T06:52:03.355Z,32.83
2022-09-06T06:54:32.042Z,26.85
2022-09-06T06:57:00.563Z,23.90
2022-09-06T06:59:29.057Z,31.98
2022-09-06T07:01:57.653Z,34.58
2022-09-06T07:04:37.928Z,26.15
2022-09-06T07:12:43.455Z,23.25
2022-09-06T07:15:11.982Z,24.05
2022-09-06T07:17:40.514Z,25.73
2022-09-06T07:20:12.902Z,25.77
2022-09-06T07:22:42.394Z,25.95
2022-09-06T07:25:14.309Z,25.90
2022-09-06T07:30:22.662Z,24.42
2022-09-06T07:32:59.410Z,23.85
2022-09-06T07:35:38.134Z,24.15
2022-09-06T07:38:17.304Z,22.65
2022-09-06T07:40:53.164Z,22.20
2022-09-06T07:43:32.437Z,30.58
2022-09-06T07:46:00.914Z,23.27
2022-09-06T07:48:30.667Z,27.20
2022-09-06T07:51:05.080Z,24.13
2022-09-06T07:53:34.942Z,24.52
2022-09-06T07:56:04.942Z,27.30
2022-09-06T07:58:42.713Z,23.98
2022-09-06T08:01:31.935Z,68.97
2022-09-06T08:04:01.538Z,32.05
2022-09-06T08:09:20.520Z,28.20
2022-09-06T08:11:49.247Z,27.08
2022-09-06T08:14:17.839Z,30.88
2022-09-06T08:16:46.385Z,27.42
2022-09-06T08:19:25.111Z,63.05
2022-09-06T08:21:56.638Z,33.03
2022-09-06T08:24:25.237Z,28.50
2022-09-06T08:26:53.752Z,30.02
2022-09-06T08:29:22.235Z,23.58
2022-09-06T08:31:50.778Z,23.85
2022-09-06T08:34:19.412Z,26.13
2022-09-06T08:36:47.823Z,24.55
2022-09-06T08:39:17.248Z,24.25
2022-09-06T08:41:52.377Z,23.70
2022-09-06T08:47:16.975Z,25.45
2022-09-06T08:49:50.158Z,26.08
2022-09-06T08:52:18.981Z,25.20
2022-09-06T08:54:47.471Z,28.05
2022-09-06T08:57:38.183Z,27.60
2022-09-06T09:00:20.257Z,34.15
2022-09-06T09:06:03.916Z,35.80
2022-09-06T09:08:54.573Z,31.67
2022-09-06T09:11:23.806Z,31.88
2022-09-06T09:14:08.686Z,33.22
2022-09-06T09:16:37.238Z,31.40
2022-09-06T09:19:06.478Z,32.55
2022-09-06T09:21:37.041Z,30.40
2022-09-06T09:24:06.824Z,30.08
2022-09-06T09:26:39.440Z,27.92
2022-09-06T09:29:14.754Z,27.60
2022-09-06T09:31:53.470Z,24.70
2022-09-06T09:34:30.365Z,25.40
2022-09-06T09:40:06.396Z,25.48
2022-09-06T09:42:39.686Z,26.98
2022-09-06T09:45:20.813Z,30.73
2022-09-06T09:48:16.117Z,44.38
2022-09-06T09:50:44.632Z,35.55
2022-09-06T09:53:14.820Z,45.35
2022-09-06T09:55:44.552Z,50.13
2022-09-06T10:01:34.109Z,56.22
2022-09-06T10:09:41.149Z,57.33
2022-09-06T10:12:14.040Z,67.93
2022-09-06T10:14:44.566Z,64.63
2022-09-06T10:17:20.075Z,67.78
2022-09-06T10:19:53.529Z,74.68
2022-09-06T10:22:40.631Z,86.88
2022-09-06T10:25:20.495Z,60.35
2022-09-06T10:28:11.477Z,64.20
2022-09-06T10:33:59.052Z,89.30
2022-09-06T10:36:35.153Z,92.10
2022-09-06T10:39:06.731Z,73.17
2022-09-06T10:41:43.149Z,82.75
2022-09-06T10:44:17.315Z,80.85
2022-09-06T10:46:47.316Z,82.43
2022-09-06T10:49:19.946Z,85.43
2022-09-06T10:52:08.847Z,71.10
2022-09-06T10:54:40.823Z,86.38
2022-09-06T11:00:15.012Z,107.60
2022-09-06T11:06:02.912Z,77.05
2022-09-06T11:08:51.292Z,82.90
2022-09-06T11:11:36.672Z,87.47
2022-09-06T11:14:16.034Z,83.47
2022-09-06T11:16:55.964Z,79.40
2022-09-06T11:19:27.661Z,94.18
2022-09-06T11:22:14.897Z,84.57
2022-09-06T11:28:01.458Z,126.60
2022-09-06T11:30:30.880Z,91.63
2022-09-06T11:33:11.631Z,113.15
2022-09-06T11:35:41.562Z,122.22
2022-09-06T11:38:25.349Z,135.52
2022-09-06T11:41:01.422Z,118.18
2022-09-06T11:43:42.279Z,113.95
2022-09-06T11:49:47.700Z,85.82
2022-09-06T11:55:39.971Z,108.97
2022-09-06T11:58:20.774Z,103.03
2022-09-06T12:01:07.923Z,104.25
2022-09-06T12:04:06.211Z,129.45
2022-09-06T12:06:36.174Z,117.93
2022-09-06T12:12:42.487Z,67.65
2022-09-06T12:15:24.798Z,87.35
2022-09-06T12:17:59.791Z,72.05
2022-09-06T12:20:57.438Z,78.22
2022-09-06T12:23:36.048Z,86.25
2022-09-06T12:26:34.457Z,100.57
2022-09-06T12:29:12.835Z,105.05
2022-09-06T12:31:44.071Z,57.10
2022-09-06T12:34:21.120Z,61.42
2022-09-06T12:39:21.573Z,52.20
2022-09-06T12:41:51.791Z,51.08
2022-09-06T12:44:24.986Z,49.20
2022-09-06T12:46:53.627Z,41.60
2022-09-06T12:49:32.136Z,57.13
2022-09-06T12:52:07.971Z,48.28
2022-09-06T12:54:42.247Z,41.08
2022-09-06T12:57:19.661Z,43.58
2022-09-06T12:59:54.212Z,44.92
2022-09-06T13:02:37.439Z,42.42
2022-09-06T13:05:07.618Z,41.63
2022-09-06T13:07:50.696Z,52.25
2022-09-06T13:10:25.968Z,63.38
2022-09-06T13:12:59.485Z,48.63
2022-09-06T13:15:31.641Z,110.05
2022-09-06T13:18:19.188Z,91.20
2022-09-06T13:21:06.323Z,46.80
2022-09-06T13:23:42.485Z,47.03
2022-09-06T13:26:10.972Z,43.35
2022-09-06T13:28:40.977Z,45.80
2022-09-06T13:31:09.961Z,62.70
2022-09-06T13:33:38.829Z,85.65
2022-09-06T13:36:12.563Z,61.67
2022-09-06T13:38:42.505Z,71.65
2022-09-06T13:41:26.141Z,82.57
2022-09-06T13:44:03.632Z,56.63
2022-09-06T13:46:36.553Z,46.60
2022-09-06T13:49:14.740Z,48.15
2022-09-06T13:51:53.301Z,61.70
2022-09-06T13:54:23.157Z,54.88
2022-09-06T13:56:51.634Z,45.80
2022-09-06T13:59:20.021Z,44.60
2022-09-06T14:01:50.426Z,52.00
2022-09-06T14:04:21.734Z,46.92
2022-09-06T14:06:50.217Z,42.70
2022-09-06T14:09:18.857Z,41.30
2022-09-06T14:11:48.424Z,48.92
2022-09-06T14:14:18.269Z,40.83
2022-09-06T14:16:57.503Z,41.42
2022-09-06T14:19:26.149Z,40.15
2022-09-06T14:21:54.513Z,42.72
2022-09-06T14:24:22.944Z,41.65
2022-09-06T14:26:56.517Z,42.60
2022-09-06T14:29:36.411Z,41.75
2022-09-06T14:32:04.849Z,35.30
2022-09-06T14:34:37.820Z,45.92
2022-09-06T14:37:13.658Z,58.13
2022-09-06T14:39:47.283Z,47.30
2022-09-06T14:42:15.725Z,58.33
2022-09-06T14:44:44.273Z,50.10
2022-09-06T14:47:22.601Z,53.75
2022-09-06T14:49:56.225Z,59.78
2022-09-06T14:52:34.647Z,55.35
2022-09-06T14:55:07.819Z,53.90
2022-09-06T14:57:41.437Z,57.42
2022-09-06T15:00:11.474Z,54.75
2022-09-06T15:02:40.069Z,61.33
2022-09-06T15:05:09.282Z,54.08
2022-09-06T15:07:42.589Z,47.33
2022-09-06T15:10:21.258Z,48.22
2022-09-06T15:12:49.614Z,55.08
2022-09-06T15:15:28.256Z,53.38
2022-09-06T15:17:57.128Z,48.00
2022-09-06T15:20:33.286Z,52.78
2022-09-06T15:23:27.096Z,51.97
2022-09-06T15:26:01.473Z,53.17
2022-09-06T15:28:35.968Z,57.10
2022-09-06T15:31:10.047Z,51.88
2022-09-06T15:33:44.949Z,49.72
2022-09-06T15:36:14.222Z,47.55
2022-09-06T15:38:44.094Z,48.00
2022-09-06T15:41:16.657Z,48.63
2022-09-06T15:43:47.527Z,46.05
2022-09-06T15:46:17.199Z,46.50
2022-09-06T15:48:46.723Z,41.45
2022-09-06T15:51:16.525Z,50.53
2022-09-06T15:53:49.990Z,40.65
2022-09-06T15:56:33.768Z,47.61
2022-09-06T15:59:02.983Z,44.83
2022-09-06T16:01:36.654Z,47.40
2022-09-06T16:04:09.011Z,51.65
2022-09-06T16:06:42.550Z,56.28
2022-09-06T16:09:14.483Z,40.72
2022-09-06T16:11:43.127Z,36.47
2022-09-06T16:14:20.367Z,39.97
2022-09-06T16:19:16.871Z,46.03
2022-09-06T16:21:46.280Z,46.05
2022-09-06T16:24:15.749Z,46.80
2022-09-06T16:26:45.796Z,43.08
2022-09-06T16:29:16.017Z,35.65
2022-09-06T16:31:45.169Z,33.05
2022-09-06T16:34:18.708Z,28.88
2022-09-06T16:36:47.109Z,30.70
2022-09-06T16:39:15.511Z,27.55
2022-09-06T16:41:45.011Z,24.50
2022-09-06T16:44:17.178Z,25.10
2022-09-06T16:46:57.617Z,22.23
2022-09-06T16:49:26.124Z,24.80
2022-09-06T16:51:54.588Z,24.17
2022-09-06T16:54:23.031Z,23.05
2022-09-06T16:56:56.424Z,21.38
2022-09-06T16:59:24.913Z,23.67
2022-09-06T17:01:56.165Z,20.50
2022-09-06T17:04:24.714Z,23.83
2022-09-06T17:06:53.405Z,21.15
2022-09-06T17:09:21.981Z,20.45
2022-09-06T17:11:50.550Z,22.08
2022-09-06T17:14:19.382Z,23.52
2022-09-06T17:17:06.190Z,20.92
2022-09-06T17:19:37.001Z,21.23
2022-09-06T17:22:05.946Z,23.20
2022-09-06T17:24:34.757Z,28.70
2022-09-06T17:27:04.145Z,35.72
2022-09-06T17:29:33.049Z,41.88
2022-09-06T17:32:04.239Z,39.22
2022-09-06T17:34:32.866Z,34.70
2022-09-06T17:37:01.456Z,35.17
2022-09-06T17:39:30.131Z,30.70
2022-09-06T17:41:59.258Z,27.35
2022-09-06T17:44:27.831Z,27.83
2022-09-06T17:47:11.863Z,25.38
2022-09-06T17:49:42.075Z,25.43
2022-09-06T17:52:11.341Z,18.92
2022-09-06T17:54:40.014Z,19.10
2022-09-06T17:57:08.674Z,16.55
2022-09-06T17:59:38.811Z,17.73
2022-09-06T18:02:08.037Z,15.38
2022-09-06T18:04:37.118Z,17.25
2022-09-06T18:07:05.708Z,16.27
2022-09-06T18:09:34.287Z,15.85
2022-09-06T18:12:02.962Z,19.05
2022-09-06T18:14:31.565Z,18.40
2022-09-06T18:17:00.259Z,17.38
2022-09-06T18:19:29.016Z,21.30
2022-09-06T18:21:58.236Z,17.55
2022-09-06T18:24:36.402Z,19.77
2022-09-06T18:27:05.024Z,17.88
2022-09-06T18:29:33.551Z,18.45
2022-09-06T18:32:02.144Z,19.30
2022-09-06T18:34:30.796Z,17.73
2022-09-06T18:36:59.419Z,18.20
2022-09-06T18:39:28.117Z,19.73
2022-09-06T18:42:04.348Z,17.92
2022-09-06T18:44:34.078Z,18.60
2022-09-06T18:47:03.228Z,18.02
2022-09-06T18:49:32.890Z,19.52
2022-09-06T18:52:02.104Z,21.30
2022-09-06T18:54:31.234Z,16.58
2022-09-06T18:57:00.344Z,17.95
2022-09-06T18:59:31.151Z,17.20
2022-09-06T19:01:59.819Z,20.27
2022-09-06T19:04:28.521Z,18.00
2022-09-06T19:07:07.098Z,18.08
2022-09-06T19:09:35.655Z,18.47
2022-09-06T19:12:05.302Z,21.58
2022-09-06T19:14:34.121Z,19.83
2022-09-06T19:17:03.199Z,18.52
2022-09-06T19:19:31.702Z,19.02
2022-09-06T19:22:00.229Z,19.50
2022-09-06T19:24:28.717Z,18.40
2022-09-06T19:26:57.181Z,18.83
2022-09-06T19:29:27.671Z,16.85
2022-09-06T19:31:56.334Z,17.08
2022-09-06T19:34:24.986Z,16.52
2022-09-06T19:36:55.644Z,16.90
2022-09-06T19:39:31.151Z,16.58
2022-09-06T19:42:02.171Z,18.35
2022-09-06T19:44:30.595Z,21.27
2022-09-06T19:47:09.217Z,18.45
2022-09-06T19:49:37.679Z,15.80
2022-09-06T19:52:09.981Z,15.48
2022-09-06T19:54:38.525Z,16.40
2022-09-06T19:57:07.013Z,17.25
2022-09-06T19:59:37.007Z,19.13
2022-09-06T20:02:05.493Z,16.40
2022-09-06T20:04:34.011Z,16.35
2022-09-06T20:07:03.708Z,17.23
2022-09-06T20:09:32.187Z,18.85
2022-09-06T20:12:00.699Z,17.60
2022-09-06T20:14:29.193Z,16.35
2022-09-06T20:17:11.342Z,15.15
2022-09-06T20:19:51.904Z,19.20
2022-09-06T20:22:20.360Z,15.55
2022-09-06T20:24:48.858Z,18.13
2022-09-06T20:27:17.382Z,16.60
2022-09-06T20:29:45.998Z,13.80
2022-09-06T20:32:15.110Z,14.00
2022-09-06T20:34:43.591Z,15.02
2022-09-06T20:37:12.020Z,14.63
2022-09-06T20:39:40.486Z,15.38
2022-09-06T20:42:09.034Z,16.63
2022-09-06T20:44:37.410Z,17.73
2022-09-06T20:47:06.021Z,15.65
2022-09-06T20:49:34.448Z,16.57
2022-09-06T20:52:03.235Z,18.35
2022-09-06T20:54:31.583Z,19.33
2022-09-06T20:56:59.936Z,17.95
2022-09-06T20:59:32.438Z,22.71
2022-09-06T21:02:01.128Z,19.83
2022-09-06T21:04:29.678Z,21.27
2022-09-06T21:06:58.123Z,20.10
2022-09-06T21:09:37.939Z,18.64
2022-09-06T21:12:06.462Z,20.42
2022-09-06T21:14:39.856Z,21.75
2022-09-06T21:17:08.342Z,19.63
2022-09-06T21:19:36.898Z,19.42
2022-09-06T21:22:05.388Z,19.63
2022-09-06T21:24:34.403Z,21.55
2022-09-06T21:27:02.831Z,22.67
2022-09-06T21:29:31.237Z,19.83
2022-09-06T21:31:59.775Z,18.70
2022-09-06T21:34:28.293Z,18.63
2022-09-06T21:36:58.649Z,17.75
2022-09-06T21:39:27.135Z,18.48
2022-09-06T21:41:56.107Z,17.50
2022-09-06T21:44:26.493Z,18.60
2022-09-06T21:46:55.019Z,16.08
2022-09-06T21:49:23.650Z,16.88
2022-09-06T21:51:52.372Z,16.98
2022-09-06T21:54:20.878Z,16.63
2022-09-06T21:56:49.594Z,16.40
2022-09-06T21:59:28.019Z,17.27
2022-09-06T22:01:56.548Z,16.20
2022-09-06T22:04:25.157Z,16.88
2022-09-06T22:06:54.172Z,14.82
2022-09-06T22:09:22.711Z,24.65
2022-09-06T22:12:01.303Z,21.13
2022-09-06T22:14:29.813Z,17.67
2022-09-06T22:16:58.435Z,15.80
2022-09-06T22:19:27.093Z,15.90
2022-09-06T22:21:55.578Z,18.45
2022-09-06T22:24:24.069Z,16.40
2022-09-06T22:26:52.617Z,17.02
2022-09-06T22:29:21.102Z,16.20
2022-09-06T22:31:51.569Z,15.07
2022-09-06T22:34:20.164Z,18.25
2022-09-06T22:36:48.722Z,16.05
2022-09-06T22:39:22.182Z,19.42
2022-09-06T22:41:50.703Z,17.55
2022-09-06T22:44:19.275Z,19.48
2022-09-06T22:46:48.088Z,16.17
2022-09-06T22:49:26.877Z,17.23
2022-09-06T22:51:55.378Z,18.27
2022-09-06T22:54:24.312Z,17.35
2022-09-06T22:56:52.703Z,17.65
2022-09-06T22:59:21.251Z,17.15
2022-09-06T23:01:49.775Z,16.95
2022-09-06T23:04:18.375Z,18.10
2022-09-06T23:06:46.846Z,21.08
2022-09-06T23:09:15.769Z,17.52
2022-09-06T23:11:44.204Z,16.75
2022-09-06T23:14:12.666Z,17.63
2022-09-06T23:16:42.065Z,17.27
2022-09-06T23:19:11.331Z,16.42
2022-09-06T23:21:39.788Z,19.25
2022-09-06T23:24:08.285Z,19.83
2022-09-06T23:26:37.421Z,17.48
2022-09-06T23:29:06.136Z,18.17
2022-09-06T23:31:35.065Z,19.67
2022-09-06T23:34:03.811Z,22.02
2022-09-06T23:36:32.933Z,17.10
2022-09-06T23:39:02.677Z,18.80
2022-09-06T23:41:31.314Z,19.63
2022-09-06T23:43:59.923Z,23.63
2022-09-06T23:46:28.662Z,19.83
2022-09-06T23:48:57.190Z,19.95
2022-09-06T23:51:25.824Z,20.15
2022-09-06T23:53:54.318Z,21.90
2022-09-06T23:56:24.390Z,19.23
2022-09-06T23:58:52.933Z,17.83
